sensor_id;sensor_type;location;lat;lon;timestamp;temperature;humidity
26035;DHT22;13809;48.632;11.576;2022-12-07T00:01:15;7.80;46.60
26035;DHT22;13809;48.632;11.576;2022-12-07T00:06:20;7.70;46.50
26035;DHT22;13809;48.632;11.576;2022-12-07T00:11:24;7.70;46.60
26035;DHT22;13809;48.632;11.576;2022-12-07T00:16:29;7.70;46.70
26035;DHT22;13809;48.632;11.576;2022-12-07T00:21:35;7.60;46.60
26035;DHT22;13809;48.632;11.576;2022-12-07T00:26:39;7.60;46.70
26035;DHT22;13809;48.632;11.576;2022-12-07T00:31:43;7.50;46.80
26035;DHT22;13809;48.632;11.576;2022-12-07T00:36:48;7.50;46.80
26035;DHT22;13809;48.632;11.576;2022-12-07T00:41:51;7.50;46.80
26035;DHT22;13809;48.632;11.576;2022-12-07T00:46:54;7.40;46.90
26035;DHT22;13809;48.632;11.576;2022-12-07T00:51:59;7.40;47.10
26035;DHT22;13809;48.632;11.576;2022-12-07T00:57:02;7.30;47.10
26035;DHT22;13809;48.632;11.576;2022-12-07T01:02:05;7.40;47.20
26035;DHT22;13809;48.632;11.576;2022-12-07T01:07:10;7.40;47.10
26035;DHT22;13809;48.632;11.576;2022-12-07T01:12:13;7.40;47.00
26035;DHT22;13809;48.632;11.576;2022-12-07T01:17:16;7.30;46.90
26035;DHT22;13809;48.632;11.576;2022-12-07T01:22:20;7.30;47.00
26035;DHT22;13809;48.632;11.576;2022-12-07T01:27:23;7.40;47.10
26035;DHT22;13809;48.632;11.576;2022-12-07T01:32:27;7.40;47.00
26035;DHT22;13809;48.632;11.576;2022-12-07T01:37:35;7.30;46.90
26035;DHT22;13809;48.632;11.576;2022-12-07T01:42:38;7.30;46.90
26035;DHT22;13809;48.632;11.576;2022-12-07T01:47:43;7.30;47.00
26035;DHT22;13809;48.632;11.576;2022-12-07T01:52:50;7.40;46.90
26035;DHT22;13809;48.632;11.576;2022-12-07T01:57:55;7.40;46.80
26035;DHT22;13809;48.632;11.576;2022-12-07T02:03:04;7.40;46.90
26035;DHT22;13809;48.632;11.576;2022-12-07T02:08:10;7.40;46.80
26035;DHT22;13809;48.632;11.576;2022-12-07T02:13:18;7.40;46.70
26035;DHT22;13809;48.632;11.576;2022-12-07T02:18:28;7.40;46.70
26035;DHT22;13809;48.632;11.576;2022-12-07T02:23:44;7.40;46.70
26035;DHT22;13809;48.632;11.576;2022-12-07T02:29:13;7.40;46.60
26035;DHT22;13809;48.632;11.576;2022-12-07T02:34:23;7.40;46.60
26035;DHT22;13809;48.632;11.576;2022-12-07T02:39:33;7.40;46.50
26035;DHT22;13809;48.632;11.576;2022-12-07T02:44:40;7.40;46.50
26035;DHT22;13809;48.632;11.576;2022-12-07T02:49:44;7.30;46.50
26035;DHT22;13809;48.632;11.576;2022-12-07T02:54:47;7.30;46.60
26035;DHT22;13809;48.632;11.576;2022-12-07T03:00:01;7.30;46.70
26035;DHT22;13809;48.632;11.576;2022-12-07T03:05:17;7.20;46.50
26035;DHT22;13809;48.632;11.576;2022-12-07T03:10:28;7.20;46.60
26035;DHT22;13809;48.632;11.576;2022-12-07T03:15:40;7.20;46.70
26035;DHT22;13809;48.632;11.576;2022-12-07T03:20:47;7.20;46.70
26035;DHT22;13809;48.632;11.576;2022-12-07T03:25:55;7.20;46.70
26035;DHT22;13809;48.632;11.576;2022-12-07T03:31:07;7.20;46.70
26035;DHT22;13809;48.632;11.576;2022-12-07T03:36:19;7.20;46.70
26035;DHT22;13809;48.632;11.576;2022-12-07T03:41:26;7.20;46.70
26035;DHT22;13809;48.632;11.576;2022-12-07T03:46:36;7.10;46.80
26035;DHT22;13809;48.632;11.576;2022-12-07T03:51:49;7.10;46.80
26035;DHT22;13809;48.632;11.576;2022-12-07T03:56:54;7.10;46.90
26035;DHT22;13809;48.632;11.576;2022-12-07T04:02:04;7.00;47.00
26035;DHT22;13809;48.632;11.576;2022-12-07T04:07:07;7.00;46.90
26035;DHT22;13809;48.632;11.576;2022-12-07T04:12:11;7.00;46.90
26035;DHT22;13809;48.632;11.576;2022-12-07T04:17:15;7.00;47.00
26035;DHT22;13809;48.632;11.576;2022-12-07T04:22:18;6.90;47.00
26035;DHT22;13809;48.632;11.576;2022-12-07T04:27:21;6.90;47.10
26035;DHT22;13809;48.632;11.576;2022-12-07T04:32:26;7.00;47.20
26035;DHT22;13809;48.632;11.576;2022-12-07T04:37:29;7.00;47.00
26035;DHT22;13809;48.632;11.576;2022-12-07T04:42:32;7.00;47.10
26035;DHT22;13809;48.632;11.576;2022-12-07T04:47:37;7.00;47.20
26035;DHT22;13809;48.632;11.576;2022-12-07T04:52:40;7.00;47.10
26035;DHT22;13809;48.632;11.576;2022-12-07T04:57:43;7.00;47.00
26035;DHT22;13809;48.632;11.576;2022-12-07T05:02:47;7.10;47.00
26035;DHT22;13809;48.632;11.576;2022-12-07T05:07:51;7.10;46.80
26035;DHT22;13809;48.632;11.576;2022-12-07T05:12:54;7.10;46.70
26035;DHT22;13809;48.632;11.576;2022-12-07T05:17:58;7.10;46.70
26035;DHT22;13809;48.632;11.576;2022-12-07T05:23:01;7.00;46.60
26035;DHT22;13809;48.632;11.576;2022-12-07T05:28:05;7.00;46.70
26035;DHT22;13809;48.632;11.576;2022-12-07T05:33:09;6.90;46.60
26035;DHT22;13809;48.632;11.576;2022-12-07T05:38:13;6.90;46.60
26035;DHT22;13809;48.632;11.576;2022-12-07T05:43:16;6.80;46.60
26035;DHT22;13809;48.632;11.576;2022-12-07T05:48:20;6.70;46.50
26035;DHT22;13809;48.632;11.576;2022-12-07T05:53:23;6.70;46.50
26035;DHT22;13809;48.632;11.576;2022-12-07T05:58:26;6.60;46.40
26035;DHT22;13809;48.632;11.576;2022-12-07T06:03:49;6.50;46.40
26035;DHT22;13809;48.632;11.576;2022-12-07T06:08:52;6.50;46.40
26035;DHT22;13809;48.632;11.576;2022-12-07T06:13:55;6.40;46.40
26035;DHT22;13809;48.632;11.576;2022-12-07T06:18:59;6.30;46.50
26035;DHT22;13809;48.632;11.576;2022-12-07T06:24:03;6.20;46.50
26035;DHT22;13809;48.632;11.576;2022-12-07T06:29:07;6.20;46.60
26035;DHT22;13809;48.632;11.576;2022-12-07T06:34:13;6.10;46.60
26035;DHT22;13809;48.632;11.576;2022-12-07T06:39:17;6.10;46.60
26035;DHT22;13809;48.632;11.576;2022-12-07T06:44:21;6.20;47.80
26035;DHT22;13809;48.632;11.576;2022-12-07T06:49:26;6.20;47.40
26035;DHT22;13809;48.632;11.576;2022-12-07T06:54:29;6.30;46.80
26035;DHT22;13809;48.632;11.576;2022-12-07T06:59:32;6.30;46.50
26035;DHT22;13809;48.632;11.576;2022-12-07T07:04:37;6.30;46.40
26035;DHT22;13809;48.632;11.576;2022-12-07T07:09:40;6.30;46.10
26035;DHT22;13809;48.632;11.576;2022-12-07T07:14:43;6.30;46.10
26035;DHT22;13809;48.632;11.576;2022-12-07T07:19:47;6.30;46.10
26035;DHT22;13809;48.632;11.576;2022-12-07T07:24:50;6.20;45.90
26035;DHT22;13809;48.632;11.576;2022-12-07T07:29:54;6.20;46.00
26035;DHT22;13809;48.632;11.576;2022-12-07T07:34:58;6.20;46.10
26035;DHT22;13809;48.632;11.576;2022-12-07T07:40:01;6.20;45.80
26035;DHT22;13809;48.632;11.576;2022-12-07T07:45:06;6.20;45.90
26035;DHT22;13809;48.632;11.576;2022-12-07T07:50:11;6.20;45.90
26035;DHT22;13809;48.632;11.576;2022-12-07T07:55:14;6.20;45.90
26035;DHT22;13809;48.632;11.576;2022-12-07T08:00:21;6.20;45.90
26035;DHT22;13809;48.632;11.576;2022-12-07T08:05:25;6.20;45.80
26035;DHT22;13809;48.632;11.576;2022-12-07T08:10:28;6.20;45.80
26035;DHT22;13809;48.632;11.576;2022-12-07T08:15:33;6.20;46.00
26035;DHT22;13809;48.632;11.576;2022-12-07T08:20:40;6.20;46.10
26035;DHT22;13809;48.632;11.576;2022-12-07T08:25:44;6.10;46.30
26035;DHT22;13809;48.632;11.576;2022-12-07T08:31:14;6.20;46.60
26035;DHT22;13809;48.632;11.576;2022-12-07T08:36:19;6.30;46.40
26035;DHT22;13809;48.632;11.576;2022-12-07T08:41:23;6.30;46.80
26035;DHT22;13809;48.632;11.576;2022-12-07T08:46:30;6.40;47.10
26035;DHT22;13809;48.632;11.576;2022-12-07T08:51:37;6.60;47.20
26035;DHT22;13809;48.632;11.576;2022-12-07T08:56:41;6.70;46.90
26035;DHT22;13809;48.632;11.576;2022-12-07T09:01:44;6.80;47.10
26035;DHT22;13809;48.632;11.576;2022-12-07T09:06:49;7.00;47.10
26035;DHT22;13809;48.632;11.576;2022-12-07T09:11:53;7.10;46.90
26035;DHT22;13809;48.632;11.576;2022-12-07T09:17:05;7.20;46.90
26035;DHT22;13809;48.632;11.576;2022-12-07T09:22:10;7.30;46.80
26035;DHT22;13809;48.632;11.576;2022-12-07T09:27:13;7.40;46.70
26035;DHT22;13809;48.632;11.576;2022-12-07T09:32:19;7.50;46.70
26035;DHT22;13809;48.632;11.576;2022-12-07T09:37:24;7.60;47.10
26035;DHT22;13809;48.632;11.576;2022-12-07T09:42:29;7.70;46.70
26035;DHT22;13809;48.632;11.576;2022-12-07T09:47:35;7.90;46.20
26035;DHT22;13809;48.632;11.576;2022-12-07T09:52:40;7.90;45.80
26035;DHT22;13809;48.632;11.576;2022-12-07T09:57:44;8.00;45.20
26035;DHT22;13809;48.632;11.576;2022-12-07T10:02:49;8.00;45.20
26035;DHT22;13809;48.632;11.576;2022-12-07T10:07:54;7.90;46.00
26035;DHT22;13809;48.632;11.576;2022-12-07T10:13:00;8.00;45.20
26035;DHT22;13809;48.632;11.576;2022-12-07T10:18:03;8.00;45.20
26035;DHT22;13809;48.632;11.576;2022-12-07T10:23:16;8.00;45.20
26035;DHT22;13809;48.632;11.576;2022-12-07T10:28:19;8.00;44.40
26035;DHT22;13809;48.632;11.576;2022-12-07T10:33:32;8.00;45.20
26035;DHT22;13809;48.632;11.576;2022-12-07T10:38:45;8.00;43.60
26035;DHT22;13809;48.632;11.576;2022-12-07T10:43:53;8.00;43.70
26035;DHT22;13809;48.632;11.576;2022-12-07T10:49:03;8.00;44.00
26035;DHT22;13809;48.632;11.576;2022-12-07T10:54:23;7.90;44.40
26035;DHT22;13809;48.632;11.576;2022-12-07T11:05:06;7.90;43.00
26035;DHT22;13809;48.632;11.576;2022-12-07T11:10:19;7.90;43.80
26035;DHT22;13809;48.632;11.576;2022-12-07T11:15:29;7.90;44.20
26035;DHT22;13809;48.632;11.576;2022-12-07T11:20:41;7.90;44.40
26035;DHT22;13809;48.632;11.576;2022-12-07T11:25:53;8.00;43.90
26035;DHT22;13809;48.632;11.576;2022-12-07T11:31:04;8.00;43.90
26035;DHT22;13809;48.632;11.576;2022-12-07T11:36:30;8.00;44.10
26035;DHT22;13809;48.632;11.576;2022-12-07T11:41:38;8.10;43.90
26035;DHT22;13809;48.632;11.576;2022-12-07T11:46:48;8.10;43.90
26035;DHT22;13809;48.632;11.576;2022-12-07T11:51:56;8.10;43.70
26035;DHT22;13809;48.632;11.576;2022-12-07T11:57:04;8.10;44.20
26035;DHT22;13809;48.632;11.576;2022-12-07T12:02:14;8.10;43.80
26035;DHT22;13809;48.632;11.576;2022-12-07T12:07:22;8.10;43.00
26035;DHT22;13809;48.632;11.576;2022-12-07T12:13:04;8.10;43.20
26035;DHT22;13809;48.632;11.576;2022-12-07T12:19:03;8.10;42.70
26035;DHT22;13809;48.632;11.576;2022-12-07T12:24:11;8.10;42.80
26035;DHT22;13809;48.632;11.576;2022-12-07T12:29:26;8.10;43.50
26035;DHT22;13809;48.632;11.576;2022-12-07T12:34:33;8.10;43.00
26035;DHT22;13809;48.632;11.576;2022-12-07T12:45:34;8.20;43.10
26035;DHT22;13809;48.632;11.576;2022-12-07T12:50:38;8.20;43.40
26035;DHT22;13809;48.632;11.576;2022-12-07T12:56:06;8.20;43.50
26035;DHT22;13809;48.632;11.576;2022-12-07T13:01:45;8.20;42.40
26035;DHT22;13809;48.632;11.576;2022-12-07T13:06:49;8.20;42.50
26035;DHT22;13809;48.632;11.576;2022-12-07T13:12:00;8.20;43.40
26035;DHT22;13809;48.632;11.576;2022-12-07T13:17:07;8.20;43.00
26035;DHT22;13809;48.632;11.576;2022-12-07T13:22:47;8.20;43.50
26035;DHT22;13809;48.632;11.576;2022-12-07T13:27:57;8.20;42.50
26035;DHT22;13809;48.632;11.576;2022-12-07T13:33:03;8.20;42.90
26035;DHT22;13809;48.632;11.576;2022-12-07T13:38:27;8.20;43.20
26035;DHT22;13809;48.632;11.576;2022-12-07T13:43:31;8.20;42.50
26035;DHT22;13809;48.632;11.576;2022-12-07T13:48:43;8.20;43.60
26035;DHT22;13809;48.632;11.576;2022-12-07T13:53:48;8.10;42.80
26035;DHT22;13809;48.632;11.576;2022-12-07T13:58:51;8.20;43.70
26035;DHT22;13809;48.632;11.576;2022-12-07T14:03:56;8.10;43.70
26035;DHT22;13809;48.632;11.576;2022-12-07T14:09:20;8.20;43.50
26035;DHT22;13809;48.632;11.576;2022-12-07T14:14:26;8.20;43.70
26035;DHT22;13809;48.632;11.576;2022-12-07T14:19:50;8.20;43.30
26035;DHT22;13809;48.632;11.576;2022-12-07T14:30:20;8.20;42.70
26035;DHT22;13809;48.632;11.576;2022-12-07T14:35:24;8.20;43.50
26035;DHT22;13809;48.632;11.576;2022-12-07T14:40:29;8.20;43.20
26035;DHT22;13809;48.632;11.576;2022-12-07T14:45:33;8.20;43.40
26035;DHT22;13809;48.632;11.576;2022-12-07T14:50:39;8.20;43.60
26035;DHT22;13809;48.632;11.576;2022-12-07T14:56:04;8.30;43.70
26035;DHT22;13809;48.632;11.576;2022-12-07T15:01:08;8.30;44.00
26035;DHT22;13809;48.632;11.576;2022-12-07T15:06:15;8.30;43.90
26035;DHT22;13809;48.632;11.576;2022-12-07T15:11:20;8.40;43.50
26035;DHT22;13809;48.632;11.576;2022-12-07T15:16:28;8.40;43.90
26035;DHT22;13809;48.632;11.576;2022-12-07T15:21:52;8.40;43.70
26035;DHT22;13809;48.632;11.576;2022-12-07T15:26:55;8.50;45.20
26035;DHT22;13809;48.632;11.576;2022-12-07T15:31:59;8.60;44.80
26035;DHT22;13809;48.632;11.576;2022-12-07T15:37:03;8.70;44.40
26035;DHT22;13809;48.632;11.576;2022-12-07T15:42:06;8.80;43.50
26035;DHT22;13809;48.632;11.576;2022-12-07T15:47:09;8.80;43.40
26035;DHT22;13809;48.632;11.576;2022-12-07T15:52:14;8.70;43.10
26035;DHT22;13809;48.632;11.576;2022-12-07T15:57:17;8.60;42.80
26035;DHT22;13809;48.632;11.576;2022-12-07T16:02:26;8.60;43.10
26035;DHT22;13809;48.632;11.576;2022-12-07T16:07:30;8.50;43.10
26035;DHT22;13809;48.632;11.576;2022-12-07T16:12:34;8.40;42.80
26035;DHT22;13809;48.632;11.576;2022-12-07T16:17:37;8.40;43.10
26035;DHT22;13809;48.632;11.576;2022-12-07T16:22:41;8.40;43.10
26035;DHT22;13809;48.632;11.576;2022-12-07T16:27:44;8.40;43.00
26035;DHT22;13809;48.632;11.576;2022-12-07T16:32:49;8.40;43.10
26035;DHT22;13809;48.632;11.576;2022-12-07T16:37:53;8.40;42.90
26035;DHT22;13809;48.632;11.576;2022-12-07T16:42:56;8.30;42.70
26035;DHT22;13809;48.632;11.576;2022-12-07T16:48:00;8.30;43.10
26035;DHT22;13809;48.632;11.576;2022-12-07T16:53:05;8.30;43.20
26035;DHT22;13809;48.632;11.576;2022-12-07T16:58:09;8.20;42.80
26035;DHT22;13809;48.632;11.576;2022-12-07T17:03:13;8.20;43.00
26035;DHT22;13809;48.632;11.576;2022-12-07T17:08:23;8.20;43.10
26035;DHT22;13809;48.632;11.576;2022-12-07T17:13:27;8.20;43.00
26035;DHT22;13809;48.632;11.576;2022-12-07T17:18:49;8.20;43.20
26035;DHT22;13809;48.632;11.576;2022-12-07T17:23:53;8.20;43.00
26035;DHT22;13809;48.632;11.576;2022-12-07T17:28:57;8.20;42.90
26035;DHT22;13809;48.632;11.576;2022-12-07T17:34:00;8.10;43.00
26035;DHT22;13809;48.632;11.576;2022-12-07T17:39:08;8.10;43.20
26035;DHT22;13809;48.632;11.576;2022-12-07T17:44:13;8.10;42.70
26035;DHT22;13809;48.632;11.576;2022-12-07T17:49:16;8.10;43.00
26035;DHT22;13809;48.632;11.576;2022-12-07T17:54:21;8.00;43.00
26035;DHT22;13809;48.632;11.576;2022-12-07T17:59:24;8.00;43.10
26035;DHT22;13809;48.632;11.576;2022-12-07T18:04:27;7.90;43.20
26035;DHT22;13809;48.632;11.576;2022-12-07T18:09:32;7.90;43.30
26035;DHT22;13809;48.632;11.576;2022-12-07T18:14:35;7.80;43.20
26035;DHT22;13809;48.632;11.576;2022-12-07T18:19:39;7.80;43.60
26035;DHT22;13809;48.632;11.576;2022-12-07T18:24:43;7.80;43.50
26035;DHT22;13809;48.632;11.576;2022-12-07T18:29:47;7.70;43.30
26035;DHT22;13809;48.632;11.576;2022-12-07T18:34:51;7.60;43.40
26035;DHT22;13809;48.632;11.576;2022-12-07T18:39:56;7.60;43.70
26035;DHT22;13809;48.632;11.576;2022-12-07T18:44:59;7.60;43.40
26035;DHT22;13809;48.632;11.576;2022-12-07T18:50:04;7.60;44.60
26035;DHT22;13809;48.632;11.576;2022-12-07T18:55:09;7.60;44.10
26035;DHT22;13809;48.632;11.576;2022-12-07T19:00:13;7.60;43.70
26035;DHT22;13809;48.632;11.576;2022-12-07T19:05:17;7.60;43.70
26035;DHT22;13809;48.632;11.576;2022-12-07T19:10:22;7.60;43.90
26035;DHT22;13809;48.632;11.576;2022-12-07T19:15:25;7.60;44.10
26035;DHT22;13809;48.632;11.576;2022-12-07T19:20:28;7.70;44.10
26035;DHT22;13809;48.632;11.576;2022-12-07T19:25:33;7.70;43.90
26035;DHT22;13809;48.632;11.576;2022-12-07T19:30:36;7.70;43.90
26035;DHT22;13809;48.632;11.576;2022-12-07T19:35:40;7.80;43.80
26035;DHT22;13809;48.632;11.576;2022-12-07T19:40:44;7.80;43.90
26035;DHT22;13809;48.632;11.576;2022-12-07T19:45:48;7.90;43.60
26035;DHT22;13809;48.632;11.576;2022-12-07T19:50:51;7.80;43.50
26035;DHT22;13809;48.632;11.576;2022-12-07T19:55:55;7.70;43.40
26035;DHT22;13809;48.632;11.576;2022-12-07T20:01:01;7.70;43.50
26035;DHT22;13809;48.632;11.576;2022-12-07T20:06:07;7.70;43.60
26035;DHT22;13809;48.632;11.576;2022-12-07T20:11:13;7.70;43.40
26035;DHT22;13809;48.632;11.576;2022-12-07T20:16:33;7.70;43.40
26035;DHT22;13809;48.632;11.576;2022-12-07T20:21:37;7.60;43.50
26035;DHT22;13809;48.632;11.576;2022-12-07T20:26:43;7.60;43.70
26035;DHT22;13809;48.632;11.576;2022-12-07T20:31:47;7.60;43.50
26035;DHT22;13809;48.632;11.576;2022-12-07T20:36:51;7.50;43.40
26035;DHT22;13809;48.632;11.576;2022-12-07T20:41:56;7.40;43.40
26035;DHT22;13809;48.632;11.576;2022-12-07T20:47:17;7.40;43.50
26035;DHT22;13809;48.632;11.576;2022-12-07T20:52:20;7.30;43.70
26035;DHT22;13809;48.632;11.576;2022-12-07T20:57:25;7.30;44.00
26035;DHT22;13809;48.632;11.576;2022-12-07T21:02:28;7.30;43.90
26035;DHT22;13809;48.632;11.576;2022-12-07T21:07:31;7.40;43.90
26035;DHT22;13809;48.632;11.576;2022-12-07T21:12:36;7.50;44.10
26035;DHT22;13809;48.632;11.576;2022-12-07T21:17:39;7.50;44.00
26035;DHT22;13809;48.632;11.576;2022-12-07T21:22:42;7.60;44.00
26035;DHT22;13809;48.632;11.576;2022-12-07T21:27:47;7.60;43.80
26035;DHT22;13809;48.632;11.576;2022-12-07T21:32:50;7.60;43.60
26035;DHT22;13809;48.632;11.576;2022-12-07T21:37:53;7.60;43.70
26035;DHT22;13809;48.632;11.576;2022-12-07T21:42:57;7.60;43.50
26035;DHT22;13809;48.632;11.576;2022-12-07T21:48:01;7.50;43.40
26035;DHT22;13809;48.632;11.576;2022-12-07T21:53:04;7.50;43.50
26035;DHT22;13809;48.632;11.576;2022-12-07T21:58:09;7.40;43.40
26035;DHT22;13809;48.632;11.576;2022-12-07T22:03:12;7.40;43.40
26035;DHT22;13809;48.632;11.576;2022-12-07T22:08:16;7.40;43.40
26035;DHT22;13809;48.632;11.576;2022-12-07T22:13:21;7.40;43.50
26035;DHT22;13809;48.632;11.576;2022-12-07T22:18:44;7.40;43.50
26035;DHT22;13809;48.632;11.576;2022-12-07T22:23:47;7.40;43.70
26035;DHT22;13809;48.632;11.576;2022-12-07T22:28:52;7.40;43.80
26035;DHT22;13809;48.632;11.576;2022-12-07T22:33:56;7.40;43.60
26035;DHT22;13809;48.632;11.576;2022-12-07T22:39:00;7.40;43.50
26035;DHT22;13809;48.632;11.576;2022-12-07T22:44:06;7.40;43.30
26035;DHT22;13809;48.632;11.576;2022-12-07T22:49:09;7.40;43.40
26035;DHT22;13809;48.632;11.576;2022-12-07T22:54:14;7.30;43.60
26035;DHT22;13809;48.632;11.576;2022-12-07T22:59:19;7.30;43.50
26035;DHT22;13809;48.632;11.576;2022-12-07T23:04:22;7.30;43.40
26035;DHT22;13809;48.632;11.576;2022-12-07T23:09:26;7.30;43.40
26035;DHT22;13809;48.632;11.576;2022-12-07T23:14:32;7.30;43.40
26035;DHT22;13809;48.632;11.576;2022-12-07T23:19:36;7.30;43.40
26035;DHT22;13809;48.632;11.576;2022-12-07T23:24:39;7.30;43.60
26035;DHT22;13809;48.632;11.576;2022-12-07T23:29:43;7.30;43.50
26035;DHT22;13809;48.632;11.576;2022-12-07T23:34:46;7.20;43.40
26035;DHT22;13809;48.632;11.576;2022-12-07T23:39:50;7.20;43.60
26035;DHT22;13809;48.632;11.576;2022-12-07T23:44:54;7.20;43.70
26035;DHT22;13809;48.632;11.576;2022-12-07T23:49:57;7.20;43.50
26035;DHT22;13809;48.632;11.576;2022-12-07T23:55:00;7.20;43.60
